Terminal Aerodrome Forecast
Issued by NWS

Current Version | Previous Version | Graphics & Text | Print | Product List | Glossary On
Versions: 1 2 3 4 5 6 7 8 9 10 11 12 13 14 15 16 17 18 19 20 21 22
000
FTUS41 KILN 250500 RRA
TAFLUK
TAF
KLUK 250547Z 2506/2606 19003KT P6SM BKN150
      TEMPO 2508/2512 5SM BR
     FM251500 15004KT P6SM VCSH BKN050 OVC100
     FM251900 10005KT 5SM -RA BR SCT015 OVC035
     FM260000 05006KT 2SM -RA OVC008
     FM260400 36010G20KT 1SM -SN BKN008 OVC015
      TEMPO 2605/2606 1/2SM SN=

USA.gov is the U.S. government's official web portal to all federal, state and local government web resources and services.